Time;durP1;ratioP1;P1;durP2;ratioP2;P2;SDS_P1;SDS_P2;PMS_P1;PMS_P2;Temp;Humidity;BMP_temperature;BMP_pressure;BME280_temperature;BME280_humidity;BME280_pressure;Samples;Min_cycle;Max_cycle;Signal;HPM_P1;HPM_P2
2022/01/01 00:02:23;;;;;;;71.35;37.63;;;10.90;99.90;;;;;;5047986;28;20052;-82
2022/01/01 00:04:49;;;;;;;77.82;35.67;;;10.90;99.90;;;;;;5050049;28;20041;-82
2022/01/01 00:07:15;;;;;;;77.43;41.67;;;10.90;99.90;;;;;;5049922;28;20053;-82
2022/01/01 00:09:43;;;;;;;68.55;37.78;;;10.90;99.90;;;;;;5051721;28;20044;-82
2022/01/01 00:12:10;;;;;;;89.15;45.17;;;10.90;99.90;;;;;;5039051;28;20061;-82
2022/01/01 00:14:36;;;;;;;61.95;30.38;;;10.90;99.90;;;;;;5052607;28;20136;-83
2022/01/01 00:17:02;;;;;;;62.00;30.15;;;10.90;99.90;;;;;;5047250;28;20132;-82
2022/01/01 00:19:28;;;;;;;65.10;27.00;;;10.90;99.90;;;;;;5049238;28;20094;-83
2022/01/01 00:21:53;;;;;;;55.65;27.02;;;10.90;99.90;;;;;;5051562;28;20049;-82
2022/01/01 00:24:19;;;;;;;67.70;34.85;;;10.90;99.90;;;;;;5047025;28;20396;-81
2022/01/01 00:26:45;;;;;;;64.45;27.95;;;10.90;99.90;;;;;;5046765;28;20290;-79
2022/01/01 00:29:11;;;;;;;56.95;29.15;;;10.90;99.90;;;;;;5046007;28;20107;-80
2022/01/01 00:31:36;;;;;;;65.00;25.27;;;10.90;99.90;;;;;;5048975;28;20053;-80
2022/01/01 00:34:02;;;;;;;53.15;23.80;;;10.90;99.90;;;;;;5046701;28;20041;-79
2022/01/01 00:36:28;;;;;;;58.35;25.42;;;10.90;99.90;;;;;;5079716;28;20045;-80
2022/01/01 00:38:54;;;;;;;61.20;26.00;;;10.90;99.90;;;;;;5047985;28;20056;-80
2022/01/01 00:41:20;;;;;;;77.68;40.33;;;10.90;99.90;;;;;;5049891;28;20033;-80
2022/01/01 00:43:46;;;;;;;55.65;26.33;;;10.90;99.90;;;;;;5049136;28;20072;-80
2022/01/01 00:46:12;;;;;;;64.47;32.05;;;10.90;99.90;;;;;;5048398;28;20076;-80
2022/01/01 00:48:38;;;;;;;69.85;27.52;;;10.90;99.90;;;;;;5049403;28;20094;-80
2022/01/01 00:51:04;;;;;;;74.40;30.83;;;10.90;99.90;;;;;;5045680;28;20054;-80
2022/01/01 00:53:30;;;;;;;68.22;29.15;;;10.90;99.90;;;;;;5046348;28;20048;-80
2022/01/01 00:55:56;;;;;;;58.15;26.48;;;10.90;99.90;;;;;;5049183;28;20183;-80
2022/01/01 00:58:21;;;;;;;60.25;26.70;;;10.90;99.90;;;;;;5048506;28;20132;-80
2022/01/01 01:00:48;;;;;;;60.22;25.50;;;10.80;99.90;;;;;;5045300;28;20120;-80
2022/01/01 01:03:15;;;;;;;63.00;24.25;;;10.80;99.90;;;;;;5049021;28;20065;-80
2022/01/01 01:05:43;;;;;;;55.92;22.20;;;10.80;99.90;;;;;;5049704;28;20094;-80
2022/01/01 01:08:10;;;;;;;61.80;22.35;;;10.80;99.90;;;;;;5049365;28;20049;-81
2022/01/01 01:10:37;;;;;;;50.85;21.60;;;10.90;99.90;;;;;;5046881;28;20045;-80
2022/01/01 01:13:04;;;;;;;57.95;22.55;;;10.70;99.90;;;;;;5041287;28;20064;-80
2022/01/01 01:15:30;;;;;;;52.22;19.90;;;10.70;99.90;;;;;;5047336;28;20037;-80
2022/01/01 01:17:57;;;;;;;53.88;20.77;;;10.70;99.90;;;;;;5048456;28;20092;-80
2022/01/01 01:20:24;;;;;;;49.38;17.73;;;10.70;99.90;;;;;;5046295;28;20099;-80
2022/01/01 01:22:50;;;;;;;45.00;19.98;;;10.70;99.90;;;;;;5045815;28;20523;-80
2022/01/01 01:25:16;;;;;;;52.38;22.00;;;10.70;99.90;;;;;;5042713;28;20060;-80
2022/01/01 01:27:42;;;;;;;52.20;20.60;;;10.70;99.90;;;;;;5048137;28;20045;-80
2022/01/01 01:30:12;;;;;;;53.15;18.60;;;10.60;99.90;;;;;;5048518;28;20053;-80
2022/01/01 01:32:38;;;;;;;49.22;20.42;;;10.60;99.90;;;;;;5047995;28;20128;-80
2022/01/01 01:35:05;;;;;;;48.15;18.15;;;10.60;99.90;;;;;;5047876;28;20128;-79
2022/01/01 01:37:30;;;;;;;50.97;19.10;;;10.60;99.90;;;;;;5042109;28;20111;-80
2022/01/01 01:39:56;;;;;;;59.15;21.30;;;10.60;99.90;;;;;;5047849;28;20489;-80
2022/01/01 01:42:24;;;;;;;52.50;20.52;;;10.60;99.90;;;;;;5042074;28;20118;-80
2022/01/01 01:44:53;;;;;;;58.92;21.88;;;10.50;99.90;;;;;;5074813;28;20432;-79
2022/01/01 01:47:27;;;;;;;64.95;25.10;;;10.60;99.90;;;;;;5042882;28;20448;-80
2022/01/01 01:49:53;;;;;;;56.22;24.52;;;10.60;99.90;;;;;;5044183;28;20127;-80
2022/01/01 01:52:20;;;;;;;67.10;27.67;;;10.60;99.90;;;;;;5047584;28;20064;-80
2022/01/01 01:54:46;;;;;;;74.45;30.05;;;10.70;99.90;;;;;;5039581;28;20121;-80
2022/01/01 01:57:12;;;;;;;66.10;30.05;;;10.60;99.90;;;;;;5043406;28;20133;-80
2022/01/01 01:59:43;;;;;;;71.00;30.63;;;10.60;99.90;;;;;;5046973;28;20431;-80
2022/01/01 02:02:09;;;;;;;73.35;31.27;;;10.70;99.90;;;;;;5042329;28;20049;-80
2022/01/01 02:04:35;;;;;;;77.45;33.45;;;10.60;99.90;;;;;;5048240;28;20047;-80
2022/01/01 02:07:03;;;;;;;81.22;34.35;;;10.60;99.90;;;;;;5047330;28;20480;-80
2022/01/01 02:09:29;;;;;;;95.75;47.30;;;10.60;99.90;;;;;;5048288;28;20472;-79
2022/01/01 02:11:55;;;;;;;92.68;37.50;;;10.60;99.90;;;;;;5042951;28;20127;-80
2022/01/01 02:14:32;;;;;;;70.32;30.80;;;10.80;99.90;;;;;;5046785;28;20135;-80
2022/01/01 02:19:25;;;;;;;79.35;36.03;;;10.70;99.90;;;;;;5047170;28;20067;-80
2022/01/01 02:21:53;;;;;;;80.35;35.47;;;10.70;99.90;;;;;;5046204;28;20040;-80
2022/01/01 02:24:18;;;;;;;85.90;34.20;;;10.70;99.90;;;;;;5046289;28;20107;-80
2022/01/01 02:26:44;;;;;;;102.40;40.63;;;10.70;99.90;;;;;;5046746;28;20068;-80
2022/01/01 02:29:10;;;;;;;82.80;36.10;;;10.70;99.90;;;;;;5046745;28;20045;-80
2022/01/01 02:31:36;;;;;;;76.80;36.10;;;10.70;99.90;;;;;;5041093;28;20036;-80
2022/01/01 02:34:07;;;;;;;87.15;39.60;;;10.70;99.90;;;;;;5044999;28;20171;-80
2022/01/01 02:36:41;;;;;;;89.53;38.00;;;10.70;99.90;;;;;;5046350;28;20120;-80
2022/01/01 02:39:17;;;;;;;81.57;37.28;;;10.70;99.90;;;;;;5046294;28;20041;-80
2022/01/01 02:41:43;;;;;;;87.65;37.53;;;10.80;99.90;;;;;;5048346;28;20086;-80
2022/01/01 02:44:09;;;;;;;81.68;37.17;;;10.80;99.90;;;;;;5046709;28;20151;-80
2022/01/01 02:46:36;;;;;;;78.40;35.05;;;10.80;99.90;;;;;;5046759;28;20572;-80
2022/01/01 02:49:03;;;;;;;87.82;36.08;;;10.80;99.90;;;;;;5045669;28;20481;-80
2022/01/01 02:51:29;;;;;;;70.43;32.60;;;10.80;99.90;;;;;;5045424;28;20061;-80
2022/01/01 02:53:54;;;;;;;95.38;37.30;;;10.80;99.90;;;;;;5047176;28;20046;-80
2022/01/01 02:56:20;;;;;;;70.15;36.00;;;10.70;99.90;;;;;;5044837;28;20365;-80
2022/01/01 02:58:46;;;;;;;73.22;36.70;;;10.80;99.90;;;;;;5044879;28;20382;-80
2022/01/01 03:01:11;;;;;;;84.18;37.17;;;10.80;99.90;;;;;;5045114;28;20042;-80
2022/01/01 03:03:37;;;;;;;74.45;34.65;;;10.80;99.90;;;;;;5048543;28;20063;-80
2022/01/01 03:06:03;;;;;;;76.10;35.13;;;10.80;99.90;;;;;;5046475;28;20041;-80
2022/01/01 03:08:29;;;;;;;83.10;37.17;;;10.80;99.90;;;;;;5080965;28;20048;-80
2022/01/01 03:10:55;;;;;;;76.90;36.55;;;10.80;99.90;;;;;;5041752;28;20418;-80
2022/01/01 03:13:21;;;;;;;90.53;37.50;;;10.80;99.90;;;;;;5044486;28;20095;-80
2022/01/01 03:15:47;;;;;;;90.80;37.45;;;10.80;99.90;;;;;;5046600;28;20075;-80
2022/01/01 03:18:13;;;;;;;90.68;38.78;;;10.80;99.90;;;;;;5042740;28;20045;-80
2022/01/01 03:20:39;;;;;;;79.82;36.33;;;10.80;99.90;;;;;;5042926;28;20543;-80
2022/01/01 03:23:05;;;;;;;87.45;38.35;;;10.80;99.90;;;;;;5045662;28;20059;-80
2022/01/01 03:25:31;;;;;;;94.65;39.42;;;10.80;99.90;;;;;;5046196;28;20480;-80
2022/01/01 03:27:57;;;;;;;85.18;38.05;;;10.80;99.90;;;;;;5080402;28;20079;-80
2022/01/01 03:30:23;;;;;;;84.47;39.42;;;10.80;99.90;;;;;;5046693;28;20041;-80
2022/01/01 03:32:48;;;;;;;82.85;40.60;;;10.80;99.90;;;;;;5045836;28;20431;-80
2022/01/01 03:35:14;;;;;;;101.13;42.28;;;10.80;99.90;;;;;;5047662;28;20041;-80
2022/01/01 03:37:40;;;;;;;87.22;40.78;;;10.80;99.90;;;;;;5048833;28;20033;-80
2022/01/01 03:40:06;;;;;;;93.28;42.90;;;10.80;99.90;;;;;;5079084;28;20041;-80
2022/01/01 03:42:32;;;;;;;102.03;43.08;;;10.80;99.90;;;;;;5038162;28;20471;-80
2022/01/01 03:44:58;;;;;;;81.95;39.17;;;10.80;99.90;;;;;;5077401;28;20052;-80
2022/01/01 03:47:24;;;;;;;87.18;43.00;;;10.80;99.90;;;;;;5071712;28;20052;-80
2022/01/01 03:49:49;;;;;;;92.10;43.55;;;10.80;99.90;;;;;;5040706;28;20082;-80
2022/01/01 03:52:15;;;;;;;96.35;43.55;;;10.80;99.90;;;;;;5043145;28;20106;-80
2022/01/01 03:54:41;;;;;;;96.47;44.67;;;10.70;99.90;;;;;;5046393;28;20037;-80
2022/01/01 03:57:07;;;;;;;92.28;45.65;;;10.80;99.90;;;;;;5045130;28;20565;-80
2022/01/01 03:59:33;;;;;;;96.05;47.80;;;10.70;99.90;;;;;;5049903;28;20064;-80
2022/01/01 04:01:59;;;;;;;105.25;48.35;;;10.80;99.90;;;;;;5048221;28;20048;-80
2022/01/01 04:04:25;;;;;;;101.63;46.53;;;10.80;99.90;;;;;;5048403;28;20044;-80
2022/01/01 04:06:52;;;;;;;105.47;50.05;;;10.70;99.90;;;;;;5050811;28;20045;-80
2022/01/01 04:09:18;;;;;;;99.60;49.05;;;10.70;99.90;;;;;;5049938;28;20044;-80
2022/01/01 04:11:43;;;;;;;108.50;51.60;;;10.70;99.90;;;;;;5047027;28;20116;-80
2022/01/01 04:14:15;;;;;;;96.63;51.33;;;10.70;99.90;;;;;;5051486;28;20131;-80
2022/01/01 04:16:42;;;;;;;105.13;49.60;;;10.70;99.90;;;;;;5050281;28;20546;-80
2022/01/01 04:19:08;;;;;;;103.60;48.70;;;10.70;99.90;;;;;;5047308;28;20111;-80
2022/01/01 04:21:34;;;;;;;102.85;49.42;;;10.70;99.90;;;;;;5048730;28;20045;-80
2022/01/01 04:24:00;;;;;;;100.88;50.40;;;10.70;99.90;;;;;;5047540;28;20044;-80
2022/01/01 04:26:25;;;;;;;107.82;50.47;;;10.70;99.90;;;;;;5042797;28;20418;-80
2022/01/01 04:28:51;;;;;;;101.55;49.80;;;10.70;99.90;;;;;;5041931;28;20400;-80
2022/01/01 04:31:17;;;;;;;102.82;50.97;;;10.70;99.90;;;;;;5044160;28;20041;-80
2022/01/01 04:33:43;;;;;;;109.50;51.38;;;10.70;99.90;;;;;;5046818;28;20056;-80
2022/01/01 04:36:09;;;;;;;122.28;52.65;;;10.70;99.90;;;;;;5049033;28;20056;-80
2022/01/01 04:41:04;;;;;;;119.07;53.45;;;10.70;99.90;;;;;;5048567;28;20053;-80
2022/01/01 04:43:30;;;;;;;104.10;52.33;;;10.70;99.90;;;;;;5045347;28;20091;-80
2022/01/01 04:45:55;;;;;;;113.00;52.75;;;10.70;99.90;;;;;;5050609;28;20045;-80
2022/01/01 04:48:21;;;;;;;109.88;50.38;;;10.70;99.90;;;;;;5045513;28;20147;-80
2022/01/01 04:50:49;;;;;;;100.95;48.90;;;10.70;99.90;;;;;;5047443;28;20131;-80
2022/01/01 04:53:17;;;;;;;100.78;49.42;;;10.70;99.90;;;;;;5047159;28;20140;-80
2022/01/01 04:55:46;;;;;;;108.20;51.00;;;10.70;99.90;;;;;;5048437;28;20358;-80
2022/01/01 04:58:12;;;;;;;111.57;51.42;;;10.70;99.90;;;;;;5048633;28;20044;-80
2022/01/01 05:00:37;;;;;;;104.03;51.22;;;11.10;99.90;;;;;;5049880;28;20036;-80
2022/01/01 05:03:03;;;;;;;106.80;53.10;;;10.70;99.90;;;;;;5047075;28;20029;-80
2022/01/01 05:05:29;;;;;;;120.93;54.33;;;10.70;99.90;;;;;;5047519;28;20072;-80
2022/01/01 05:07:54;;;;;;;117.20;56.88;;;10.90;99.90;;;;;;5047406;28;20033;-80
2022/01/01 05:10:20;;;;;;;125.82;57.42;;;10.80;99.90;;;;;;5048001;28;20048;-80
2022/01/01 05:12:46;;;;;;;108.40;56.15;;;10.70;99.90;;;;;;5040992;28;20042;-80
2022/01/01 05:15:12;;;;;;;122.03;59.03;;;10.70;99.90;;;;;;5044112;28;21059;-80
2022/01/01 05:17:37;;;;;;;113.88;55.85;;;10.70;99.90;;;;;;5039842;28;20437;-80
2022/01/01 05:20:04;;;;;;;121.40;59.03;;;10.70;99.90;;;;;;5048781;28;20041;-80
2022/01/01 05:22:29;;;;;;;124.88;57.58;;;10.80;99.90;;;;;;5049528;28;20504;-80
2022/01/01 05:24:59;;;;;;;124.28;56.78;;;10.70;99.90;;;;;;5046869;28;20184;-80
2022/01/01 05:27:26;;;;;;;117.53;57.15;;;10.80;99.90;;;;;;5046075;28;20051;-80
2022/01/01 05:29:52;;;;;;;117.15;57.72;;;10.80;99.90;;;;;;5044338;28;20045;-80
2022/01/01 05:32:17;;;;;;;128.35;57.30;;;10.80;99.90;;;;;;5046729;28;20492;-80
2022/01/01 05:34:43;;;;;;;109.22;56.65;;;10.80;99.90;;;;;;5045039;28;20473;-80
2022/01/01 05:37:09;;;;;;;141.32;54.92;;;10.80;99.90;;;;;;5046951;28;20044;-80
2022/01/01 05:39:34;;;;;;;123.43;57.17;;;10.80;99.90;;;;;;5047658;28;20052;-80
2022/01/01 05:42:00;;;;;;;121.40;56.28;;;10.80;99.90;;;;;;5048082;28;20472;-80
2022/01/01 05:44:26;;;;;;;117.88;54.55;;;10.80;99.90;;;;;;5043909;28;20079;-80
2022/01/01 05:46:53;;;;;;;118.45;52.28;;;10.80;99.90;;;;;;5042268;28;20037;-80
2022/01/01 05:49:19;;;;;;;113.90;53.00;;;10.80;99.90;;;;;;5040372;28;20079;-80
2022/01/01 05:51:44;;;;;;;116.90;51.10;;;10.80;99.90;;;;;;5043966;28;20446;-80
2022/01/01 05:54:10;;;;;;;129.38;53.40;;;10.80;99.90;;;;;;5046813;28;20075;-80
2022/01/01 05:56:36;;;;;;;123.72;52.88;;;10.80;99.90;;;;;;5044036;28;20078;-80
2022/01/01 05:59:01;;;;;;;101.15;49.22;;;10.80;99.90;;;;;;5043654;28;20102;-80
2022/01/01 06:01:27;;;;;;;125.32;50.83;;;10.80;99.90;;;;;;5046338;28;20033;-80
2022/01/01 06:03:52;;;;;;;107.40;47.90;;;10.80;99.90;;;;;;5047079;28;20505;-80
2022/01/01 06:06:18;;;;;;;96.43;46.60;;;10.70;99.90;;;;;;5047629;28;20048;-80
2022/01/01 06:08:44;;;;;;;101.00;46.08;;;10.80;99.90;;;;;;5047232;28;20041;-80
2022/01/01 06:11:09;;;;;;;100.38;43.55;;;10.80;99.90;;;;;;5039570;28;20041;-80
2022/01/01 06:13:35;;;;;;;100.22;40.65;;;10.70;99.90;;;;;;5043618;28;20048;-80
2022/01/01 06:16:00;;;;;;;96.15;38.13;;;10.80;99.90;;;;;;5046698;28;20040;-80
2022/01/01 06:18:26;;;;;;;88.43;36.58;;;10.80;99.90;;;;;;5047030;28;20107;-80
2022/01/01 06:20:51;;;;;;;94.93;34.83;;;10.80;99.90;;;;;;5045887;28;20044;-80
2022/01/01 06:23:17;;;;;;;78.10;33.97;;;10.70;99.90;;;;;;5044860;28;20047;-80
2022/01/01 06:25:43;;;;;;;91.70;33.30;;;10.70;99.90;;;;;;5044271;28;20041;-80
2022/01/01 06:28:09;;;;;;;95.93;32.78;;;10.70;99.90;;;;;;5046607;28;20045;-80
2022/01/01 06:30:34;;;;;;;82.47;30.30;;;10.80;99.90;;;;;;5045923;28;20135;-80
2022/01/01 06:33:15;;;;;;;79.32;32.00;;;10.80;99.90;;;;;;5045069;28;20145;-79
2022/01/01 06:35:42;;;;;;;95.63;33.47;;;10.70;99.90;;;;;;5042842;28;20148;-79
2022/01/01 06:38:08;;;;;;;75.63;32.05;;;10.70;99.90;;;;;;5043892;28;20045;-80
2022/01/01 06:40:35;;;;;;;93.78;32.58;;;10.70;99.90;;;;;;5045853;28;20033;-80
2022/01/01 06:43:01;;;;;;;93.70;34.42;;;10.70;99.90;;;;;;5041983;28;20049;-78
2022/01/01 06:45:27;;;;;;;83.47;32.78;;;10.70;99.90;;;;;;5047170;28;20102;-82
2022/01/01 06:47:52;;;;;;;103.63;32.10;;;10.80;99.90;;;;;;5045692;28;20049;-81
2022/01/01 06:50:18;;;;;;;99.20;31.75;;;10.70;99.90;;;;;;5043986;28;20076;-80
2022/01/01 06:52:44;;;;;;;88.13;33.30;;;10.70;99.90;;;;;;5044927;28;20048;-79
2022/01/01 06:55:12;;;;;;;84.60;32.03;;;10.70;99.90;;;;;;5044021;28;20060;-79
2022/01/01 06:57:41;;;;;;;95.70;32.50;;;10.70;99.90;;;;;;5078966;28;20139;-79
2022/01/01 07:00:09;;;;;;;105.65;33.83;;;10.70;99.90;;;;;;5046159;28;20124;-80
2022/01/01 07:02:42;;;;;;;118.85;33.95;;;10.70;99.90;;;;;;5046332;28;20049;-79
2022/01/01 07:05:09;;;;;;;92.97;33.47;;;10.70;99.90;;;;;;5039452;28;20114;-79
2022/01/01 07:07:35;;;;;;;96.95;31.83;;;10.70;99.90;;;;;;5047347;28;20045;-79
2022/01/01 07:10:03;;;;;;;104.10;31.75;;;10.80;99.90;;;;;;5045391;28;20068;-79
2022/01/01 07:12:28;;;;;;;96.50;29.90;;;10.80;99.90;;;;;;5041564;28;20532;-79
2022/01/01 07:14:54;;;;;;;89.80;30.75;;;10.80;99.90;;;;;;5047323;28;20136;-79
2022/01/01 07:17:19;;;;;;;81.95;28.25;;;10.80;99.90;;;;;;5040357;28;20095;-80
2022/01/01 07:19:45;;;;;;;83.25;28.67;;;10.80;99.90;;;;;;5040329;28;20076;-80
2022/01/01 07:22:10;;;;;;;85.25;28.67;;;10.80;99.90;;;;;;5040867;28;20128;-80
2022/01/01 07:24:36;;;;;;;79.30;28.85;;;10.80;99.90;;;;;;5043258;28;20041;-80
2022/01/01 07:27:02;;;;;;;82.80;28.38;;;10.80;99.90;;;;;;5047276;28;20052;-79
2022/01/01 07:29:27;;;;;;;80.13;26.33;;;10.80;99.90;;;;;;5042901;28;20051;-79
2022/01/01 07:31:53;;;;;;;73.43;27.45;;;10.90;99.90;;;;;;5045506;28;20033;-80
2022/01/01 07:34:20;;;;;;;80.13;26.08;;;10.80;99.90;;;;;;5045657;28;20095;-78
2022/01/01 07:36:46;;;;;;;75.75;26.15;;;10.90;99.90;;;;;;5049567;28;20044;-78
2022/01/01 07:39:12;;;;;;;83.35;26.83;;;10.90;99.90;;;;;;5049470;28;20099;-78
2022/01/01 07:41:37;;;;;;;58.47;23.55;;;10.90;99.90;;;;;;5048922;28;20040;-77
2022/01/01 07:44:03;;;;;;;75.45;25.95;;;10.90;99.90;;;;;;5047000;28;20072;-78
2022/01/01 07:46:29;;;;;;;73.25;25.48;;;10.90;99.90;;;;;;5048307;28;20041;-78
2022/01/01 07:48:55;;;;;;;67.72;24.48;;;11.00;99.90;;;;;;5051310;28;20083;-79
2022/01/01 07:51:20;;;;;;;75.55;24.95;;;11.00;99.90;;;;;;5049674;28;20045;-77
2022/01/01 07:53:46;;;;;;;69.00;23.63;;;11.00;99.90;;;;;;5042484;28;20044;-78
2022/01/01 07:56:11;;;;;;;65.70;23.85;;;11.00;99.90;;;;;;5043306;28;20045;-79
2022/01/01 07:58:37;;;;;;;62.28;24.23;;;11.00;99.90;;;;;;5081299;28;20083;-78
2022/01/01 08:01:03;;;;;;;65.20;23.63;;;11.10;99.90;;;;;;5050690;28;20116;-80
2022/01/01 08:03:28;;;;;;;63.40;23.27;;;11.10;99.90;;;;;;5043443;28;20086;-79
2022/01/01 08:05:55;;;;;;;76.65;24.77;;;11.10;99.90;;;;;;5049375;28;20040;-79
2022/01/01 08:08:21;;;;;;;62.42;22.65;;;11.10;99.90;;;;;;5042825;28;20051;-80
2022/01/01 08:10:48;;;;;;;62.58;24.33;;;11.10;99.90;;;;;;5047746;28;20048;-82
2022/01/01 08:13:21;;;;;;;67.65;24.52;;;11.20;99.90;;;;;;5047346;28;20045;-82
2022/01/01 08:15:48;;;;;;;65.23;24.67;;;11.20;99.90;;;;;;5044331;28;20037;-79
2022/01/01 08:18:13;;;;;;;65.38;24.35;;;11.20;99.90;;;;;;5044043;28;20342;-80
2022/01/01 08:20:39;;;;;;;70.22;25.52;;;11.20;99.90;;;;;;5044038;28;20042;-78
2022/01/01 08:23:04;;;;;;;69.72;25.77;;;11.30;99.90;;;;;;5045406;28;20049;-80
2022/01/01 08:25:30;;;;;;;72.10;26.33;;;11.30;99.90;;;;;;5046746;28;20045;-80
2022/01/01 08:27:56;;;;;;;70.40;26.92;;;11.30;99.90;;;;;;5045345;28;20060;-80
2022/01/01 08:30:22;;;;;;;66.78;24.83;;;11.30;99.90;;;;;;5049951;28;20037;-80
2022/01/01 08:32:47;;;;;;;80.53;27.73;;;11.30;99.90;;;;;;5049154;28;20041;-80
2022/01/01 08:35:13;;;;;;;64.38;28.23;;;11.40;99.90;;;;;;5050717;28;20397;-80
2022/01/01 08:37:42;;;;;;;70.63;28.38;;;11.40;99.90;;;;;;5048590;28;20119;-80
2022/01/01 08:40:08;;;;;;;77.38;30.25;;;11.40;99.90;;;;;;5047801;28;20037;-80
2022/01/01 08:42:33;;;;;;;70.88;29.02;;;11.40;99.90;;;;;;5048505;28;20499;-80
2022/01/01 08:44:59;;;;;;;75.72;31.27;;;11.40;99.90;;;;;;5047110;28;20124;-80
2022/01/01 08:47:26;;;;;;;79.82;31.67;;;11.40;99.90;;;;;;5049685;28;20047;-80
2022/01/01 08:49:55;;;;;;;86.50;31.48;;;11.40;99.90;;;;;;5047469;28;20138;-79
2022/01/01 08:52:25;;;;;;;76.45;31.33;;;11.40;99.90;;;;;;5049595;28;20045;-79
2022/01/01 08:54:59;;;;;;;73.35;31.63;;;11.40;99.90;;;;;;5047212;28;20056;-79
2022/01/01 08:57:26;;;;;;;68.20;28.58;;;11.50;99.90;;;;;;5080458;28;20041;-80
2022/01/01 08:59:52;;;;;;;68.65;30.60;;;11.50;99.90;;;;;;5049527;28;20139;-80
2022/01/01 09:02:19;;;;;;;76.32;32.05;;;11.50;99.90;;;;;;5051419;28;20067;-80
2022/01/01 09:04:44;;;;;;;74.68;32.97;;;11.50;99.90;;;;;;5045383;28;20400;-80
2022/01/01 09:07:10;;;;;;;68.80;30.08;;;11.50;99.90;;;;;;5078155;28;20045;-80
2022/01/01 09:09:36;;;;;;;70.82;31.52;;;11.60;99.90;;;;;;5049407;28;20057;-80
2022/01/01 09:12:01;;;;;;;69.97;30.75;;;11.60;99.90;;;;;;5043244;28;20136;-80
2022/01/01 09:14:27;;;;;;;60.42;28.73;;;11.60;99.90;;;;;;5049298;28;20508;-79
2022/01/01 09:16:53;;;;;;;65.63;29.67;;;11.60;99.90;;;;;;5049653;28;20068;-81
2022/01/01 09:19:19;;;;;;;63.50;27.38;;;11.60;99.90;;;;;;5047479;28;20033;-82
2022/01/01 09:21:45;;;;;;;67.00;30.10;;;11.70;99.90;;;;;;5047463;28;20048;-81
2022/01/01 09:24:11;;;;;;;66.53;27.77;;;11.70;99.90;;;;;;5046440;28;20092;-79
2022/01/01 09:26:37;;;;;;;63.20;28.58;;;11.70;99.90;;;;;;5050247;28;20049;-80
2022/01/01 09:29:04;;;;;;;69.90;29.02;;;11.80;99.90;;;;;;5042722;28;20120;-80
2022/01/01 09:31:30;;;;;;;59.83;27.63;;;11.80;99.90;;;;;;5046923;28;20452;-80
2022/01/01 09:33:56;;;;;;;54.47;26.70;;;11.80;99.90;;;;;;5048676;28;20100;-80
2022/01/01 09:36:21;;;;;;;49.00;25.50;;;11.80;99.90;;;;;;5047153;28;20052;-79
2022/01/01 09:38:47;;;;;;;57.03;26.85;;;11.90;99.90;;;;;;5047823;28;20044;-80
2022/01/01 09:41:14;;;;;;;56.00;26.10;;;11.90;99.90;;;;;;5047195;28;20039;-80
2022/01/01 09:43:40;;;;;;;52.03;25.45;;;11.90;99.90;;;;;;5042914;28;20463;-80
2022/01/01 09:46:06;;;;;;;53.92;26.52;;;12.00;99.90;;;;;;5039672;28;20053;-80
2022/01/01 09:48:32;;;;;;;43.17;24.23;;;12.00;99.90;;;;;;5052176;28;20045;-78
2022/01/01 09:51:01;;;;;;;48.78;24.65;;;12.00;99.90;;;;;;5039930;28;20466;-79
2022/01/01 09:53:28;;;;;;;49.80;23.77;;;12.00;99.90;;;;;;5075258;28;20052;-79
2022/01/01 09:55:55;;;;;;;49.80;23.35;;;12.00;99.90;;;;;;5047653;28;20175;-79
2022/01/01 09:58:25;;;;;;;49.60;23.05;;;12.10;99.90;;;;;;5078589;28;20048;-80
2022/01/01 10:00:52;;;;;;;40.70;21.63;;;12.10;99.90;;;;;;5048274;28;20959;-81
2022/01/01 10:03:32;;;;;;;46.42;21.83;;;12.10;99.90;;;;;;5041368;28;20048;-82
2022/01/01 10:06:02;;;;;;;43.85;22.63;;;12.10;99.90;;;;;;5046883;28;20045;-81
2022/01/01 10:08:28;;;;;;;39.83;22.02;;;12.10;99.90;;;;;;5040185;28;20037;-81
2022/01/01 10:10:54;;;;;;;45.47;22.40;;;12.10;99.90;;;;;;5041549;28;20404;-81
2022/01/01 10:13:28;;;;;;;39.95;21.08;;;12.10;99.90;;;;;;5048113;28;20133;-81
2022/01/01 10:15:55;;;;;;;44.70;22.37;;;12.20;99.90;;;;;;5048961;28;20098;-81
2022/01/01 10:18:26;;;;;;;46.75;23.00;;;12.10;99.90;;;;;;5057098;28;20040;-81
2022/01/01 10:21:00;;;;;;;45.55;23.00;;;12.10;99.90;;;;;;5045894;28;20045;-81
2022/01/01 10:23:29;;;;;;;;;;;12.20;99.90;;;;;;5044609;28;20048;-81
2022/01/01 10:29:08;;;;;;;46.15;22.48;;;12.30;99.90;;;;;;5035755;28;20045;-81
2022/01/01 10:31:34;;;;;;;46.33;22.45;;;12.20;99.90;;;;;;5045768;28;20131;-81
2022/01/01 10:34:01;;;;;;;46.80;20.83;;;12.20;99.90;;;;;;5047127;28;20378;-81
2022/01/01 10:36:30;;;;;;;41.17;21.88;;;12.20;99.90;;;;;;5037364;28;20042;-81
2022/01/01 10:39:18;;;;;;;45.33;20.75;;;12.20;99.90;;;;;;5036091;28;20417;-82
2022/01/01 10:41:50;;;;;;;38.60;20.08;;;12.20;99.90;;;;;;5035721;28;20432;-80
2022/01/01 10:44:20;;;;;;;37.38;19.48;;;12.20;99.90;;;;;;5037448;28;20040;-81
2022/01/01 10:46:46;;;;;;;42.95;20.02;;;12.20;99.90;;;;;;5042642;28;20102;-83
2022/01/01 10:52:16;;;;;;;40.60;19.27;;;12.20;99.90;;;;;;5041682;28;20140;-79
2022/01/01 10:54:57;;;;;;;36.70;18.75;;;12.20;99.90;;;;;;5045291;28;20507;-79
2022/01/01 10:57:26;;;;;;;35.83;17.65;;;12.20;99.90;;;;;;5046656;28;20511;-79
2022/01/01 11:00:04;;;;;;;29.75;16.05;;;12.20;99.90;;;;;;5048164;28;20048;-79
2022/01/01 11:02:33;;;;;;;33.63;15.93;;;12.20;99.90;;;;;;5048381;28;20481;-79
2022/01/01 11:04:58;;;;;;;35.13;16.50;;;12.30;99.90;;;;;;5048870;28;20496;-79
2022/01/01 11:07:26;;;;;;;35.00;17.35;;;12.30;99.90;;;;;;5043230;28;20064;-79
2022/01/01 11:09:52;;;;;;;34.67;16.52;;;12.30;99.90;;;;;;5046262;28;20584;-79
2022/01/01 11:12:20;;;;;;;31.02;14.60;;;12.30;99.90;;;;;;5048455;28;20450;-79
2022/01/01 11:14:46;;;;;;;25.75;13.43;;;12.30;99.90;;;;;;5053039;28;20110;-79
2022/01/01 11:17:12;;;;;;;32.42;15.18;;;12.40;99.90;;;;;;5047004;28;20041;-78
2022/01/01 11:19:38;;;;;;;32.05;14.63;;;12.40;99.90;;;;;;5049482;28;20037;-79
2022/01/01 11:22:04;;;;;;;29.75;13.43;;;12.40;99.90;;;;;;5049619;28;20037;-79
2022/01/01 11:24:31;;;;;;;22.23;12.77;;;12.40;99.90;;;;;;5053624;28;20037;-79
2022/01/01 11:26:58;;;;;;;22.85;12.25;;;12.40;99.90;;;;;;5051900;28;20075;-79
2022/01/01 11:29:24;;;;;;;24.35;12.15;;;12.40;99.90;;;;;;5051840;28;20033;-78
2022/01/01 11:31:53;;;;;;;20.33;10.40;;;12.40;99.90;;;;;;5049860;28;20128;-78
2022/01/01 11:34:20;;;;;;;25.58;11.40;;;12.50;99.90;;;;;;5049833;28;20061;-78
2022/01/01 11:36:46;;;;;;;24.58;11.30;;;12.50;99.90;;;;;;5056830;28;20041;-81
2022/01/01 11:39:13;;;;;;;22.02;10.90;;;12.50;99.90;;;;;;5048284;28;20552;-82
2022/01/01 11:41:44;;;;;;;22.75;10.40;;;12.50;99.90;;;;;;5040000;28;20053;-81
2022/01/01 11:44:32;;;;;;;18.85;9.38;;;12.50;99.90;;;;;;5045488;28;20079;-81
2022/01/01 11:47:13;;;;;;;21.92;8.77;;;12.50;99.90;;;;;;5048092;28;20052;-81
2022/01/01 11:49:38;;;;;;;23.15;8.93;;;12.50;99.90;;;;;;5047883;28;20044;-77
2022/01/01 11:52:04;;;;;;;19.95;8.55;;;12.50;99.90;;;;;;5052300;28;20049;-82
2022/01/01 11:54:35;;;;;;;17.45;7.32;;;12.60;99.90;;;;;;5049074;28;20040;-83
2022/01/01 11:57:27;;;;;;;18.67;8.13;;;12.60;99.90;;;;;;5048376;28;20033;-81
2022/01/01 12:00:09;;;;;;;15.90;7.40;;;12.60;99.90;;;;;;5046251;28;20037;-81
2022/01/01 12:02:36;;;;;;;18.20;7.13;;;12.60;99.90;;;;;;5047101;28;20095;-81
2022/01/01 12:05:17;;;;;;;12.00;6.72;;;12.60;99.90;;;;;;5049741;28;20492;-82
2022/01/01 12:07:43;;;;;;;20.35;6.97;;;12.60;99.90;;;;;;5047796;28;20128;-79
2022/01/01 12:10:09;;;;;;;16.10;6.55;;;12.60;99.90;;;;;;5051262;28;20048;-82
2022/01/01 12:12:52;;;;;;;15.93;7.97;;;12.60;99.90;;;;;;5046497;28;20043;-82
2022/01/01 12:15:24;;;;;;;17.92;6.78;;;12.70;99.90;;;;;;5050402;28;20048;-88
2022/01/01 12:18:01;;;;;;;19.25;7.10;;;12.70;99.90;;;;;;5050728;28;20044;-81
2022/01/01 12:20:34;;;;;;;15.55;6.57;;;12.70;99.90;;;;;;5048652;28;20484;-81
2022/01/01 12:23:13;;;;;;;17.33;6.78;;;12.70;99.90;;;;;;5052882;28;20391;-81
2022/01/01 12:25:40;;;;;;;17.77;6.60;;;12.60;99.90;;;;;;5050896;28;20049;-81
2022/01/01 12:28:15;;;;;;;15.95;7.38;;;12.60;99.90;;;;;;5044926;28;20080;-80
2022/01/01 12:30:54;;;;;;;17.30;5.80;;;12.60;99.90;;;;;;5044403;28;20496;-80
2022/01/01 12:33:36;;;;;;;14.60;5.82;;;12.60;99.90;;;;;;5046889;28;20056;-80
2022/01/01 12:36:09;;;;;;;14.82;5.78;;;12.60;99.90;;;;;;5046490;28;20049;-80
2022/01/01 12:38:39;;;;;;;15.52;5.80;;;12.60;99.90;;;;;;5051824;28;20041;-81